Time;durP1;ratioP1;P1;durP2;ratioP2;P2;SDS_P1;SDS_P2;PMS_P1;PMS_P2;Temp;Humidity;BMP_temperature;BMP_pressure;BME280_temperature;BME280_humidity;BME280_pressure;Samples;Min_cycle;Max_cycle;Signal;HPM_P1;HPM_P2
2022/06/06 00:00:55;;;;;;;3.57;2.03;;;;;;;15.78;100.00;96568.06;5044183;28;20293;-89
2022/06/06 00:03:23;;;;;;;2.97;2.13;;;;;;;15.71;100.00;96568.28;5028468;28;20210;-88
2022/06/06 00:05:50;;;;;;;5.20;1.97;;;;;;;15.68;100.00;96568.78;5024705;28;20202;-88
2022/06/06 00:08:17;;;;;;;5.17;2.43;;;;;;;15.71;100.00;96568.28;5029149;28;20217;-88
2022/06/06 00:10:46;;;;;;;4.60;1.90;;;;;;;15.72;100.00;96559.03;5024299;28;20198;-89
2022/06/06 00:13:16;;;;;;;3.07;1.83;;;;;;;15.73;100.00;96566.13;5033501;28;20332;-89
2022/06/06 00:15:43;;;;;;;3.27;1.93;;;;;;;15.70;100.00;96552.22;5037884;28;20245;-88
2022/06/06 00:18:11;;;;;;;2.87;1.70;;;;;;;15.76;100.00;96553.88;5029060;28;20210;-88
2022/06/06 00:20:38;;;;;;;2.90;1.80;;;;;;;15.74;100.00;96556.88;5045715;28;20198;-88
2022/06/06 00:23:05;;;;;;;3.07;2.03;;;;;;;15.70;100.00;96550.31;5030695;28;20206;-89
2022/06/06 00:25:33;;;;;;;3.20;1.80;;;;;;;15.61;100.00;96551.03;5034226;28;20216;-88
2022/06/06 00:28:00;;;;;;;4.97;2.17;;;;;;;15.71;100.00;96556.56;5031458;28;20206;-88
2022/06/06 00:30:28;;;;;;;2.20;2.00;;;;;;;15.71;100.00;96534.81;5032761;28;20226;-88
2022/06/06 00:35:40;;;;;;;2.50;1.80;;;;;;;15.73;100.00;96549.81;5035455;28;20223;-88
2022/06/06 00:38:07;;;;;;;2.63;1.90;;;;;;;15.81;100.00;96543.88;5030192;28;20211;-88
2022/06/06 00:40:34;;;;;;;2.13;1.60;;;;;;;15.72;100.00;96548.16;5046371;28;20248;-88
2022/06/06 00:43:03;;;;;;;4.87;1.90;;;;;;;15.68;100.00;96552.47;5040852;28;20260;-88
2022/06/06 00:45:36;;;;;;;2.23;1.73;;;;;;;15.65;100.00;96544.78;5047597;28;20267;-88
2022/06/06 00:48:21;;;;;;;2.10;1.90;;;;;;;15.66;100.00;96542.91;5044798;28;20210;-89
2022/06/06 00:50:53;;;;;;;2.43;2.00;;;;;;;15.65;100.00;96528.47;5045824;28;20206;-88
2022/06/06 00:53:25;;;;;;;7.13;1.90;;;;;;;15.60;100.00;96536.59;5049038;28;20271;-88
2022/06/06 00:55:56;;;;;;;3.10;2.20;;;;;;;15.53;100.00;96527.78;5040673;28;20274;-88
2022/06/06 00:58:25;;;;;;;2.30;2.07;;;;;;;15.65;100.00;96533.91;5056813;28;20306;-88
2022/06/06 01:00:54;;;;;;;2.77;2.10;;;;;;;15.61;100.00;96543.69;5050713;28;20213;-89
2022/06/06 01:03:25;;;;;;;2.63;2.00;;;;;;;15.61;100.00;96523.81;5049069;28;20206;-88
2022/06/06 01:05:55;;;;;;;3.10;1.90;;;;;;;15.63;100.00;96535.28;5063112;28;20206;-88
2022/06/06 01:08:23;;;;;;;2.30;2.10;;;;;;;15.58;100.00;96527.84;5046935;28;20270;-88
2022/06/06 01:10:51;;;;;;;4.40;2.00;;;;;;;15.56;100.00;96530.03;5052111;28;20193;-89
2022/06/06 01:13:22;;;;;;;2.43;1.97;;;;;;;15.59;100.00;96524.06;5045701;28;20216;-88
2022/06/06 01:16:04;;;;;;;2.03;1.90;;;;;;;15.60;100.00;96519.44;5048571;28;20235;-89
2022/06/06 01:18:42;;;;;;;2.53;1.90;;;;;;;15.55;100.00;96517.50;5047242;28;20320;-88
2022/06/06 01:21:43;;;;;;;4.60;1.90;;;;;;;15.62;100.00;96523.56;5045653;28;20221;-89
2022/06/06 01:24:30;;;;;;;3.23;1.73;;;;;;;15.63;100.00;96530.66;5058254;28;20234;-88
2022/06/06 01:27:35;;;;;;;2.17;1.80;;;;;;;15.59;100.00;96532.22;5068977;28;20206;-88
2022/06/06 01:30:08;;;;;;;3.97;1.87;;;;;;;15.58;100.00;96525.13;5004987;28;20213;-88
2022/06/06 01:32:41;;;;;;;2.33;1.90;;;;;;;15.47;100.00;96507.88;5048739;28;20213;-88
2022/06/06 01:35:09;;;;;;;4.53;2.00;;;;;;;15.53;100.00;96522.34;5050357;28;20269;-89
2022/06/06 01:37:38;;;;;;;5.10;2.00;;;;;;;15.48;100.00;96519.59;5048460;28;20320;-88
2022/06/06 01:40:10;;;;;;;1.83;1.63;;;;;;;15.50;100.00;96514.69;5050038;28;20225;-88
2022/06/06 01:42:43;;;;;;;4.97;1.70;;;;;;;15.42;100.00;96498.81;5049100;28;20237;-88
2022/06/06 01:45:24;;;;;;;2.77;1.93;;;;;;;15.43;100.00;96504.00;5048955;28;20216;-88
2022/06/06 01:47:57;;;;;;;1.83;1.73;;;;;;;15.41;100.00;96500.72;5049066;28;20209;-88
2022/06/06 01:50:25;;;;;;;2.17;1.70;;;;;;;15.38;100.00;96492.25;5047316;28;20233;-88
2022/06/06 01:52:55;;;;;;;3.73;1.90;;;;;;;15.33;100.00;96484.84;5050907;28;20639;-88
2022/06/06 01:55:23;;;;;;;4.03;2.00;;;;;;;15.33;100.00;96484.03;5043954;28;20206;-88
2022/06/06 01:57:52;;;;;;;6.33;1.83;;;;;;;15.24;100.00;96483.69;5046709;28;20197;-88
2022/06/06 02:00:21;;;;;;;3.53;2.00;;;;;;;15.32;100.00;96485.09;5063701;28;20224;-88
2022/06/06 02:02:48;;;;;;;3.97;2.00;;;;;;;15.28;100.00;96473.13;5037942;28;20224;-89
2022/06/06 02:05:16;;;;;;;2.00;1.90;;;;;;;15.21;100.00;96475.22;5034630;28;20206;-88
2022/06/06 02:07:44;;;;;;;4.53;2.00;;;;;;;15.15;100.00;96467.00;5040992;28;20228;-88
2022/06/06 02:10:12;;;;;;;6.27;2.07;;;;;;;15.19;100.00;96474.66;5052259;28;20217;-88
2022/06/06 02:12:40;;;;;;;2.27;1.53;;;;;;;15.15;100.00;96463.44;5035058;28;20206;-88
2022/06/06 02:15:11;;;;;;;3.73;1.67;;;;;;;15.17;100.00;96460.47;5039266;28;20267;-88
2022/06/06 02:17:39;;;;;;;2.90;1.70;;;;;;;15.12;100.00;96444.94;5042443;28;20222;-88
2022/06/06 02:20:08;;;;;;;3.10;1.60;;;;;;;15.03;100.00;96452.75;5040465;28;20206;-88
2022/06/06 02:22:35;;;;;;;4.90;1.70;;;;;;;15.06;100.00;96457.66;5053247;28;20298;-88
2022/06/06 02:25:03;;;;;;;2.17;1.90;;;;;;;15.04;100.00;96451.66;5039465;28;20262;-88
2022/06/06 02:27:31;;;;;;;3.67;1.90;;;;;;;14.97;100.00;96442.84;5054769;28;20209;-87
2022/06/06 02:29:58;;;;;;;2.03;1.80;;;;;;;14.97;100.00;96439.34;5055074;28;20202;-88
2022/06/06 02:32:25;;;;;;;2.97;1.97;;;;;;;14.98;100.00;96439.06;5037238;28;20255;-88
2022/06/06 02:34:54;;;;;;;1.77;1.60;;;;;;;14.96;100.00;96445.88;5038182;28;20216;-88
2022/06/06 02:37:21;;;;;;;2.63;1.93;;;;;;;14.94;100.00;96443.38;5035427;28;20221;-88
2022/06/06 02:39:48;;;;;;;5.70;2.00;;;;;;;14.96;100.00;96443.97;5033478;28;20209;-87
2022/06/06 02:42:15;;;;;;;6.10;1.87;;;;;;;14.94;100.00;96446.13;5053099;28;20366;-88
2022/06/06 02:44:43;;;;;;;5.13;1.73;;;;;;;14.95;100.00;96444.22;5038802;28;20344;-88
2022/06/06 02:47:10;;;;;;;5.57;2.07;;;;;;;14.94;100.00;96443.38;5040815;28;20204;-88
2022/06/06 02:49:37;;;;;;;2.67;2.00;;;;;;;14.81;100.00;96440.22;5038553;28;20279;-89
2022/06/06 02:52:06;;;;;;;4.07;1.90;;;;;;;14.80;100.00;96438.63;5033895;28;20210;-88
2022/06/06 02:54:33;;;;;;;4.33;2.00;;;;;;;14.72;100.00;96429.00;5050387;28;20244;-88
2022/06/06 02:57:03;;;;;;;8.77;2.10;;;;;;;14.69;100.00;96429.50;5044745;28;20241;-88
2022/06/06 02:59:33;;;;;;;10.03;2.33;;;;;;;14.69;100.00;96424.91;5040876;28;20217;-88
2022/06/06 03:02:02;;;;;;;2.57;1.87;;;;;;;14.68;100.00;96425.16;5048336;28;20508;-88
2022/06/06 03:04:30;;;;;;;2.50;1.90;;;;;;;14.63;100.00;96428.63;5047623;28;20197;-88
2022/06/06 03:07:11;;;;;;;2.60;1.80;;;;;;;14.56;100.00;96427.16;5044770;28;20217;-88
2022/06/06 03:09:49;;;;;;;2.13;1.80;;;;;;;14.59;100.00;96429.38;5060284;28;20210;-88
2022/06/06 03:12:34;;;;;;;3.30;1.90;;;;;;;14.58;100.00;96427.75;5032621;28;20469;-88
2022/06/06 03:15:14;;;;;;;2.47;2.27;;;;;;;14.58;100.00;96435.91;5051012;28;20217;-88
2022/06/06 03:20:49;;;;;;;1.80;1.70;;;;;;;14.48;100.00;96423.00;5031854;28;20197;-88
2022/06/06 03:23:44;;;;;;;5.57;1.97;;;;;;;14.48;100.00;96428.44;5037014;28;20213;-88
2022/06/06 03:26:15;;;;;;;3.00;2.10;;;;;;;14.43;100.00;96420.22;5033899;28;20202;-89
2022/06/06 03:28:59;;;;;;;5.60;1.80;;;;;;;14.49;100.00;96423.81;5036355;28;20304;-88
2022/06/06 03:31:36;;;;;;;3.33;1.80;;;;;;;14.41;100.00;96429.69;5037075;28;20209;-88
2022/06/06 03:34:13;;;;;;;2.10;1.73;;;;;;;14.30;100.00;96426.00;5050962;28;20294;-88
2022/06/06 03:36:46;;;;;;;3.30;2.50;;;;;;;14.33;100.00;96430.94;5035086;28;20311;-88
2022/06/06 03:39:22;;;;;;;3.83;1.90;;;;;;;14.34;100.00;96432.56;5052143;28;20251;-88
2022/06/06 03:42:01;;;;;;;3.30;2.20;;;;;;;14.27;100.00;96427.34;5047172;28;20332;-88
2022/06/06 03:44:42;;;;;;;2.93;2.00;;;;;;;14.31;100.00;96442.03;5030867;28;20202;-88
2022/06/06 03:47:20;;;;;;;2.40;1.80;;;;;;;14.24;100.00;96430.53;5021006;28;20206;-88
2022/06/06 03:49:55;;;;;;;3.83;1.90;;;;;;;14.21;100.00;96424.78;5018324;28;20213;-87
2022/06/06 03:52:28;;;;;;;3.20;1.90;;;;;;;14.22;100.00;96432.69;5040693;28;20198;-88
2022/06/06 03:55:07;;;;;;;4.80;1.90;;;;;;;14.09;100.00;96421.38;5021740;28;20209;-89
2022/06/06 03:57:37;;;;;;;3.97;2.20;;;;;;;14.06;100.00;96432.72;5023758;28;20233;-88
2022/06/06 04:00:12;;;;;;;4.07;2.00;;;;;;;14.06;100.00;96433.53;5037321;28;20205;-88
2022/06/06 04:02:46;;;;;;;5.90;2.20;;;;;;;14.12;100.00;96431.75;5022903;28;20210;-88
2022/06/06 04:05:15;;;;;;;4.17;2.17;;;;;;;14.08;100.00;96427.88;5035853;28;20214;-89
2022/06/06 04:07:42;;;;;;;3.17;1.97;;;;;;;14.11;100.00;96433.63;5023771;28;20206;-88
2022/06/06 04:10:13;;;;;;;2.67;1.90;;;;;;;14.10;100.00;96442.03;5025936;28;20201;-88
2022/06/06 04:13:12;;;;;;;2.83;2.30;;;;;;;14.05;100.00;96455.50;5032322;28;20238;-88
2022/06/06 04:15:52;;;;;;;13.03;2.53;;;;;;;14.01;100.00;96452.50;5042356;28;20708;-88
2022/06/06 04:18:29;;;;;;;3.13;2.50;;;;;;;13.92;100.00;96437.69;5025544;28;20283;-88
2022/06/06 04:21:08;;;;;;;4.07;2.70;;;;;;;13.97;100.00;96448.63;5021599;28;20340;-88
2022/06/06 04:23:51;;;;;;;2.30;2.10;;;;;;;13.96;100.00;96455.13;5018604;28;20217;-87
2022/06/06 04:26:29;;;;;;;3.00;2.10;;;;;;;13.96;100.00;96446.97;5036343;28;20210;-87
2022/06/06 04:29:04;;;;;;;3.57;1.80;;;;;;;13.99;100.00;96451.91;5035063;28;20222;-88
2022/06/06 04:31:43;;;;;;;2.10;1.90;;;;;;;13.93;100.00;96447.50;5034115;28;20209;-88
2022/06/06 04:34:17;;;;;;;2.20;2.00;;;;;;;13.97;100.00;96459.47;5017684;28;20206;-88
2022/06/06 04:36:52;;;;;;;2.73;1.97;;;;;;;13.91;100.00;96468.63;5022004;28;20346;-88
2022/06/06 04:39:26;;;;;;;3.10;2.17;;;;;;;13.85;100.00;96461.47;5014808;28;20206;-88
2022/06/06 04:41:59;;;;;;;2.63;2.30;;;;;;;13.80;100.00;96469.53;5027499;28;20244;-88
2022/06/06 04:44:37;;;;;;;4.47;2.33;;;;;;;13.74;100.00;96465.09;5039792;28;20258;-88
2022/06/06 04:47:11;;;;;;;2.67;2.20;;;;;;;13.72;100.00;96461.78;5039972;28;20228;-88
2022/06/06 04:49:39;;;;;;;3.47;2.50;;;;;;;13.77;100.00;96467.31;5053985;28;20220;-87
2022/06/06 04:52:07;;;;;;;2.80;2.43;;;;;;;13.83;100.00;96469.03;5039204;28;20205;-87
2022/06/06 04:54:38;;;;;;;3.40;2.60;;;;;;;13.85;100.00;96472.34;5033573;28;20221;-88
2022/06/06 04:57:08;;;;;;;3.33;2.47;;;;;;;13.64;100.00;96468.47;5040431;28;20243;-88
2022/06/06 04:59:37;;;;;;;5.03;2.30;;;;;;;13.61;100.00;96461.63;5035969;28;20202;-88
2022/06/06 05:02:05;;;;;;;5.27;2.20;;;;;;;13.63;100.00;96469.53;5048426;28;20205;-88
2022/06/06 05:04:32;;;;;;;3.53;2.30;;;;;;;13.61;100.00;96467.06;5048327;28;20226;-88
2022/06/06 05:07:28;;;;;;;3.80;2.27;;;;;;;13.71;100.00;96465.56;5040529;28;20205;-88
2022/06/06 05:10:16;;;;;;;6.93;2.47;;;;;;;13.76;100.00;96487.38;5036125;28;20292;-88
2022/06/06 05:13:10;;;;;;;2.47;2.00;;;;;;;13.78;100.00;96479.81;5062813;28;20232;-88
2022/06/06 05:15:47;;;;;;;4.80;2.20;;;;;;;13.75;100.00;96473.00;5047062;28;20232;-88
2022/06/06 05:18:33;;;;;;;5.73;2.07;;;;;;;13.69;100.00;96475.88;5047150;28;20227;-88
2022/06/06 05:21:22;;;;;;;3.70;2.30;;;;;;;13.60;100.00;96468.16;5052882;28;20201;-87
2022/06/06 05:24:02;;;;;;;4.30;2.50;;;;;;;13.56;100.00;96474.28;5070159;28;20205;-88
2022/06/06 05:27:00;;;;;;;4.93;2.50;;;;;;;13.56;100.00;96475.13;5047744;28;20216;-88
2022/06/06 05:30:02;;;;;;;2.50;2.20;;;;;;;13.55;100.00;96468.03;5047005;28;20229;-88
2022/06/06 05:32:51;;;;;;;6.87;2.57;;;;;;;13.48;100.00;96466.56;5058923;28;20300;-88
2022/06/06 05:35:29;;;;;;;4.10;2.30;;;;;;;13.56;100.00;96474.28;5056330;28;20205;-88
2022/06/06 05:38:10;;;;;;;2.73;2.50;;;;;;;13.59;100.00;96480.06;5042576;28;20225;-88
2022/06/06 05:40:39;;;;;;;3.90;2.83;;;;;;;13.54;100.00;96466.41;5050511;28;20300;-88
2022/06/06 05:43:27;;;;;;;4.00;2.27;;;;;;;13.58;100.00;96475.72;5064047;28;20425;-88
2022/06/06 05:46:20;;;;;;;3.47;2.10;;;;;;;13.53;100.00;96469.34;5038726;28;20214;-87
2022/06/06 05:49:16;;;;;;;4.73;2.40;;;;;;;13.55;100.00;96486.22;5051599;28;20222;-87
2022/06/06 05:51:56;;;;;;;12.80;2.67;;;;;;;13.60;100.00;96486.31;5055213;28;20205;-87
2022/06/06 05:54:38;;;;;;;5.30;2.37;;;;;;;13.68;100.00;96483.19;5063556;28;20201;-87
2022/06/06 05:57:38;;;;;;;4.53;2.33;;;;;;;13.74;100.00;96486.81;5061512;28;20228;-87
2022/06/06 06:00:17;;;;;;;2.33;2.13;;;;;;;13.72;100.00;96483.50;5047799;28;20227;-87
2022/06/06 06:03:20;;;;;;;2.63;2.43;;;;;;;13.80;100.00;96491.22;5042961;28;20229;-87
2022/06/06 06:05:59;;;;;;;3.07;2.50;;;;;;;13.82;100.00;96484.50;5023815;28;20368;-87
2022/06/06 06:08:43;;;;;;;3.33;2.40;;;;;;;13.86;100.00;96487.56;5042224;28;20220;-87
2022/06/06 06:11:25;;;;;;;2.60;2.00;;;;;;;13.90;100.00;96486.81;5058834;28;20210;-87
2022/06/06 06:14:07;;;;;;;2.40;2.20;;;;;;;13.93;100.00;96488.19;5051073;28;20210;-87
2022/06/06 06:16:40;;;;;;;3.47;2.30;;;;;;;13.99;100.00;96489.91;5054485;28;20256;-88
2022/06/06 06:19:11;;;;;;;6.67;2.53;;;;;;;14.02;100.00;96479.41;5039370;28;20270;-87
2022/06/06 06:21:45;;;;;;;3.10;1.80;;;;;;;14.14;100.00;96487.44;5042546;28;20205;-87
2022/06/06 06:24:15;;;;;;;2.53;1.90;;;;;;;14.19;100.00;96482.09;5038903;28;20279;-88
2022/06/06 06:26:44;;;;;;;3.37;2.27;;;;;;;14.14;100.00;96481.16;5051189;28;20256;-88
2022/06/06 06:29:11;;;;;;;2.27;2.07;;;;;;;14.09;100.00;96490.06;5042699;28;20226;-87
2022/06/06 06:32:05;;;;;;;2.47;2.13;;;;;;;14.13;100.00;96495.81;5064192;28;20209;-87
2022/06/06 06:34:44;;;;;;;3.43;2.10;;;;;;;14.16;100.00;96500.75;5046040;28;20209;-87
2022/06/06 06:37:33;;;;;;;4.23;2.17;;;;;;;14.15;100.00;96502.66;5034186;28;20241;-88
2022/06/06 06:40:16;;;;;;;3.33;2.03;;;;;;;14.18;100.00;96493.19;5042537;28;20274;-88
2022/06/06 06:42:58;;;;;;;3.50;2.23;;;;;;;14.23;100.00;96502.22;5060033;28;20229;-87
2022/06/06 06:45:30;;;;;;;6.87;2.57;;;;;;;14.29;100.00;96503.94;5062559;28;20208;-87
2022/06/06 06:48:03;;;;;;;2.47;2.27;;;;;;;14.37;100.00;96500.00;5046390;28;20205;-88
2022/06/06 06:50:36;;;;;;;3.10;2.00;;;;;;;14.36;100.00;96499.16;5046419;28;20205;-88
2022/06/06 06:53:17;;;;;;;2.20;2.00;;;;;;;14.41;100.00;96506.59;5044006;28;20206;-88
2022/06/06 06:55:54;;;;;;;2.73;2.47;;;;;;;14.46;100.00;96500.41;5044439;28;20244;-87
2022/06/06 06:58:45;;;;;;;2.30;2.10;;;;;;;14.50;100.00;96507.81;5047811;28;20224;-88
2022/06/06 07:01:19;;;;;;;3.33;2.50;;;;;;;14.49;100.00;96494.47;5043416;28;20202;-85
2022/06/06 07:10:04;;;;;;;4.07;2.23;;;;;;;14.74;100.00;96500.22;5060434;28;20224;-86
2022/06/06 07:12:48;;;;;;;3.00;2.30;;;;;;;14.93;100.00;96515.16;5033461;28;20254;-85
2022/06/06 07:15:32;;;;;;;2.43;2.10;;;;;;;15.53;100.00;96500.56;5059730;28;20201;-87
2022/06/06 07:18:01;;;;;;;3.47;2.10;;;;;;;15.89;100.00;96497.13;5049098;28;20296;-87
2022/06/06 07:20:29;;;;;;;4.83;2.07;;;;;;;16.55;100.00;96510.38;5044746;28;20208;-87
2022/06/06 07:23:02;;;;;;;5.33;2.13;;;;;;;17.16;100.00;96508.78;5063848;28;20224;-87
2022/06/06 07:25:36;;;;;;;3.03;2.23;;;;;;;17.46;100.00;96513.47;5048062;28;20197;-87
2022/06/06 07:28:04;;;;;;;4.80;2.07;;;;;;;17.86;100.00;96514.69;5062054;28;20204;-86
2022/06/06 07:30:36;;;;;;;4.80;1.77;;;;;;;18.27;100.00;96512.75;5055594;28;20229;-85
2022/06/06 07:33:29;;;;;;;2.23;1.90;;;;;;;18.35;100.00;96525.88;5050727;28;20209;-87
2022/06/06 07:36:09;;;;;;;3.40;1.77;;;;;;;18.28;100.00;96519.88;5041148;28;20277;-87
2022/06/06 07:38:49;;;;;;;3.57;1.70;;;;;;;18.56;100.00;96526.63;5061060;28;20225;-87
2022/06/06 07:41:27;;;;;;;4.50;1.80;;;;;;;18.91;100.00;96518.38;5042725;28;20209;-86
2022/06/06 07:44:19;;;;;;;2.67;1.80;;;;;;;19.28;100.00;96520.69;5060072;28;20237;-87
2022/06/06 07:46:58;;;;;;;2.80;1.70;;;;;;;19.31;100.00;96506.44;5039372;28;20214;-86
2022/06/06 07:49:36;;;;;;;2.50;1.92;;;;;;;19.14;100.00;96509.53;5066156;28;20219;-86
2022/06/06 07:52:11;;;;;;;1.98;1.80;;;;;;;19.31;100.00;96506.44;5046780;28;20213;-86
2022/06/06 07:54:49;;;;;;;2.77;1.90;;;;;;;19.39;100.00;96514.06;5045538;28;20201;-84
2022/06/06 07:57:31;;;;;;;3.42;2.00;;;;;;;19.75;100.00;96502.91;5062619;28;20232;-87
2022/06/06 08:00:06;;;;;;;3.00;1.70;;;;;;;19.88;100.00;96505.84;5046095;28;20759;-87
2022/06/06 08:02:56;;;;;;;2.30;1.80;;;;;;;20.00;100.00;96505.47;5047803;28;20210;-86
2022/06/06 08:05:58;;;;;;;2.30;2.00;;;;;;;20.44;100.00;96508.13;5040403;28;20206;-86
2022/06/06 08:08:41;;;;;;;5.45;2.65;;;;;;;20.68;100.00;96514.47;5039284;28;20228;-86
2022/06/06 08:11:15;;;;;;;3.10;2.00;;;;;;;20.98;100.00;96498.78;5048227;28;20271;-85
2022/06/06 08:13:55;;;;;;;3.03;1.80;;;;;;;20.90;100.00;96497.50;5048662;28;20233;-85
2022/06/06 08:16:30;;;;;;;2.65;2.05;;;;;;;20.97;100.00;96497.97;5044790;28;20226;-82
2022/06/06 08:19:19;;;;;;;4.70;2.50;;;;;;;21.01;100.00;96499.00;5044738;28;20235;-84
2022/06/06 08:21:49;;;;;;;3.78;2.03;;;;;;;21.21;100.00;96489.72;5048529;28;20233;-84
2022/06/06 08:24:19;;;;;;;4.00;2.30;;;;;;;21.08;100.00;96479.44;5065632;28;20217;-83
2022/06/06 08:26:49;;;;;;;2.20;2.00;;;;;;;21.42;98.27;96484.78;5045437;28;20217;-84
2022/06/06 08:29:18;;;;;;;2.33;2.10;;;;;;;21.82;96.34;96477.88;5064282;28;20209;-84
2022/06/06 08:31:45;;;;;;;2.20;2.00;;;;;;;21.56;95.53;96473.88;5047894;28;20216;-84
2022/06/06 08:34:13;;;;;;;2.33;2.13;;;;;;;22.01;96.71;96475.94;5052864;28;20226;-84
2022/06/06 08:37:02;;;;;;;2.30;2.10;;;;;;;22.10;91.43;96474.16;5039178;28;20206;-83
2022/06/06 08:39:40;;;;;;;3.67;2.55;;;;;;;22.14;88.95;96464.16;5045009;28;20279;-84
2022/06/06 08:42:28;;;;;;;2.70;2.42;;;;;;;21.96;86.40;96464.16;5044589;28;20236;-82
2022/06/06 08:45:16;;;;;;;4.00;3.13;;;;;;;22.11;87.65;96455.72;5075423;28;20209;-84
2022/06/06 08:47:56;;;;;;;2.40;2.20;;;;;;;21.87;88.64;96448.34;5061860;28;20201;-84
2022/06/06 08:50:46;;;;;;;3.97;2.35;;;;;;;21.96;91.09;96451.25;5080891;28;20216;-83
2022/06/06 08:53:59;;;;;;;2.60;2.20;;;;;;;22.31;90.37;96447.09;5061307;28;20214;-84
2022/06/06 08:56:56;;;;;;;3.13;2.78;;;;;;;22.43;88.64;96449.38;5072725;28;20241;-84
2022/06/06 09:00:01;;;;;;;2.65;2.35;;;;;;;22.68;84.07;96443.38;5071101;28;20225;-84
2022/06/06 09:03:07;;;;;;;3.13;2.58;;;;;;;22.99;83.91;96438.09;5061091;28;20209;-84
2022/06/06 09:06:26;;;;;;;3.47;2.50;;;;;;;22.83;83.98;96442.28;5073284;28;20217;-84
2022/06/06 09:09:27;;;;;;;11.40;2.67;;;;;;;23.10;86.78;96442.28;5033187;28;20302;-84
2022/06/06 09:12:34;;;;;;;4.53;2.80;;;;;;;23.11;80.44;96441.16;5062958;28;20209;-83
2022/06/06 09:15:40;;;;;;;5.53;2.70;;;;;;;23.05;80.97;96428.63;5057189;28;20240;-84
2022/06/06 09:18:49;;;;;;;2.90;2.53;;;;;;;23.08;80.05;96427.16;5071135;28;20226;-85
2022/06/06 09:22:03;;;;;;;3.78;2.80;;;;;;;23.16;82.93;96413.50;5072399;28;20291;-88
2022/06/06 09:25:14;;;;;;;6.00;2.88;;;;;;;23.33;81.10;96413.66;5054844;28;20205;-88
2022/06/06 09:28:30;;;;;;;3.33;2.67;;;;;;;23.37;80.66;96405.59;5055374;28;20213;-88
2022/06/06 09:31:35;;;;;;;6.68;3.17;;;;;;;23.40;79.85;96397.50;5035211;28;20327;-88
2022/06/06 09:34:44;;;;;;;2.80;2.60;;;;;;;23.55;80.05;96404.66;5076349;28;20205;-88
2022/06/06 09:37:32;;;;;;;3.30;3.00;;;;;;;23.84;79.87;96398.69;5075422;28;20209;-90
2022/06/06 09:40:16;;;;;;;4.60;2.65;;;;;;;23.94;78.06;96392.13;5078307;28;20237;-88
2022/06/06 09:43:08;;;;;;;3.17;2.88;;;;;;;23.99;79.04;96398.31;5064690;28;20240;-89
2022/06/06 09:45:49;;;;;;;3.10;2.80;;;;;;;23.97;75.65;96389.56;5062511;28;20223;-88
2022/06/06 09:48:41;;;;;;;2.67;2.47;;;;;;;24.17;76.19;96395.66;5068627;28;20197;-89
2022/06/06 09:51:38;;;;;;;3.20;2.70;;;;;;;24.19;74.12;96390.66;5079214;28;20213;-89
2022/06/06 10:00:53;;;;;;;5.43;3.25;;;;;;;24.14;76.11;96384.16;5027242;28;20312;-88
2022/06/06 10:03:48;;;;;;;3.95;2.85;;;;;;;23.93;77.91;96385.78;5072997;28;20214;-88
2022/06/06 10:06:35;;;;;;;3.53;3.00;;;;;;;23.89;76.10;96365.50;5056565;28;20214;-88
2022/06/06 10:09:39;;;;;;;3.30;3.00;;;;;;;23.98;81.32;96371.88;5070669;28;20194;-89
2022/06/06 10:12:38;;;;;;;5.25;3.10;;;;;;;23.81;78.64;96365.44;5075710;28;20317;-88
2022/06/06 10:15:31;;;;;;;7.80;3.38;;;;;;;23.77;78.64;96365.25;5060937;28;20206;-88
2022/06/06 10:18:17;;;;;;;3.83;2.60;;;;;;;23.93;79.70;96363.72;5052657;28;20272;-88
2022/06/06 10:21:05;;;;;;;3.60;2.70;;;;;;;24.23;78.84;96339.28;5069156;28;20244;-89
2022/06/06 10:23:48;;;;;;;5.28;3.72;;;;;;;24.23;77.43;96347.53;5049509;28;20259;-88
2022/06/06 10:26:42;;;;;;;4.13;2.90;;;;;;;24.69;76.62;96350.63;5077851;28;20264;-89
2022/06/06 10:32:40;;;;;;;5.28;4.50;;;;;;;24.54;75.12;96331.75;5080871;28;20213;-89
2022/06/06 10:35:22;;;;;;;3.33;3.03;;;;;;;24.46;74.64;96335.28;5078920;28;20237;-88
2022/06/06 10:38:01;;;;;;;3.35;3.05;;;;;;;24.69;75.98;96341.53;5076543;28;20207;-87
2022/06/06 10:40:47;;;;;;;4.35;3.03;;;;;;;24.53;75.50;96341.16;5060052;28;20221;-87
2022/06/06 10:43:32;;;;;;;4.80;3.00;;;;;;;24.46;76.93;96336.13;5068755;28;20338;-88
2022/06/06 10:46:02;;;;;;;3.05;2.75;;;;;;;24.63;75.70;96327.06;5060597;28;20206;-88
2022/06/06 10:49:01;;;;;;;3.85;3.08;;;;;;;24.77;73.64;96338.78;5062318;28;20224;-88
2022/06/06 10:52:21;;;;;;;3.70;3.25;;;;;;;24.50;75.76;96326.03;5033216;28;20210;-88
2022/06/06 10:55:23;;;;;;;3.60;2.85;;;;;;;24.54;75.89;96330.94;5072280;28;20197;-88
2022/06/06 10:58:15;;;;;;;5.10;2.80;;;;;;;24.62;74.91;96330.16;5073273;28;20291;-87
2022/06/06 11:01:11;;;;;;;6.55;3.63;;;;;;;24.64;74.89;96316.84;5065588;28;20212;-89
2022/06/06 11:04:29;;;;;;;3.97;3.47;;;;;;;24.70;74.90;96312.78;5066372;28;20209;-88
2022/06/06 11:07:29;;;;;;;3.72;3.42;;;;;;;24.77;75.35;96311.19;4995525;28;20212;-89
2022/06/06 11:10:11;;;;;;;4.00;3.25;;;;;;;24.81;74.31;96305.84;4968539;28;20211;-88
2022/06/06 11:13:11;;;;;;;4.50;3.13;;;;;;;24.81;71.95;96311.38;5050399;28;20201;-88
2022/06/06 11:15:43;;;;;;;3.28;3.03;;;;;;;24.77;72.77;96305.66;5064563;28;20221;-88
2022/06/06 11:18:45;;;;;;;3.67;3.17;;;;;;;24.93;73.46;96307.97;5063728;28;20296;-88
2022/06/06 11:21:51;;;;;;;4.55;3.20;;;;;;;25.15;71.54;96300.38;5025974;28;20225;-89
2022/06/06 11:24:27;;;;;;;5.18;3.10;;;;;;;25.10;69.75;96292.22;5021382;28;20214;-87
2022/06/06 11:27:30;;;;;;;4.05;3.20;;;;;;;25.23;72.58;96294.03;5061383;28;20213;-87
2022/06/06 11:30:11;;;;;;;4.60;2.95;;;;;;;25.46;70.25;96286.38;5028620;28;20219;-87
2022/06/06 11:33:14;;;;;;;4.72;3.15;;;;;;;25.51;66.98;96297.28;5080292;28;20197;-86
2022/06/06 11:36:06;;;;;;;3.30;3.00;;;;;;;25.50;66.99;96281.84;5051883;28;20217;-86
2022/06/06 11:39:25;;;;;;;3.67;2.88;;;;;;;25.31;68.81;96289.66;5077567;28;20222;-87
2022/06/06 11:42:24;;;;;;;3.72;3.03;;;;;;;25.11;68.18;96288.34;5078405;28;20216;-87
2022/06/06 11:45:18;;;;;;;3.42;3.10;;;;;;;25.12;70.21;96269.81;5057574;28;20210;-87
2022/06/06 11:47:53;;;;;;;3.63;2.75;;;;;;;25.40;67.34;96279.41;5061143;28;20203;-87
2022/06/06 11:50:59;;;;;;;4.13;3.20;;;;;;;25.30;69.62;96276.97;5080452;28;20266;-86
2022/06/06 11:53:53;;;;;;;3.40;2.97;;;;;;;25.10;69.67;96274.84;5079693;28;20205;-86
2022/06/06 11:56:43;;;;;;;4.65;3.33;;;;;;;25.02;70.27;96275.66;5064175;28;20853;-87
2022/06/06 11:59:32;;;;;;;5.03;3.03;;;;;;;24.92;70.73;96265.75;5077630;28;20217;-87
2022/06/06 12:02:30;;;;;;;3.90;2.90;;;;;;;25.17;69.97;96269.66;5074523;28;20224;-87
2022/06/06 12:05:22;;;;;;;4.50;3.25;;;;;;;25.19;68.68;96270.94;5067830;28;20210;-87
2022/06/06 12:08:25;;;;;;;5.25;3.65;;;;;;;25.10;71.15;96255.50;5075986;28;20267;-86
2022/06/06 12:11:27;;;;;;;3.85;3.20;;;;;;;25.03;72.29;96269.00;5078182;28;20237;-85
2022/06/06 12:14:19;;;;;;;3.92;3.47;;;;;;;24.89;70.33;96263.59;5069864;28;20210;-87
2022/06/06 12:16:58;;;;;;;4.88;3.17;;;;;;;24.98;70.42;96269.16;5060823;28;20234;-85
2022/06/06 12:20:10;;;;;;;6.85;3.58;;;;;;;24.63;71.82;96255.28;5081769;28;20225;-85
2022/06/06 12:23:07;;;;;;;3.50;3.22;;;;;;;24.68;69.38;96273.63;5030511;28;20233;-86
2022/06/06 12:25:58;;;;;;;4.30;3.08;;;;;;;24.67;71.04;96274.81;5079824;28;20304;-86
2022/06/06 12:29:10;;;;;;;3.60;3.30;;;;;;;25.04;70.53;96276.97;5062975;28;20237;-85
2022/06/06 12:31:59;;;;;;;3.17;2.85;;;;;;;25.36;67.07;96272.88;5041644;28;20205;-85
2022/06/06 12:34:35;;;;;;;3.55;3.10;;;;;;;25.12;67.92;96258.75;5064992;28;20278;-86
2022/06/06 12:37:23;;;;;;;4.60;2.90;;;;;;;25.05;68.27;96259.25;5064245;28;20288;-85
2022/06/06 12:40:01;;;;;;;5.57;3.60;;;;;;;25.04;69.07;96254.88;5074645;28;20221;-86
2022/06/06 12:42:43;;;;;;;4.88;3.03;;;;;;;25.31;68.42;96255.66;5065703;28;20263;-85
2022/06/06 12:45:50;;;;;;;4.90;3.05;;;;;;;25.43;69.39;96248.34;5073491;28;20201;-86
2022/06/06 12:48:49;;;;;;;5.57;3.70;;;;;;;25.13;68.89;96233.56;5069917;28;20236;-85
2022/06/06 12:51:23;;;;;;;3.50;3.20;;;;;;;24.87;70.43;96227.22;5079614;28;20220;-85
2022/06/06 12:54:24;;;;;;;5.60;3.50;;;;;;;25.48;69.12;96239.88;5066744;28;20218;-85